Time;durP1;ratioP1;P1;durP2;ratioP2;P2;SDS_P1;SDS_P2;PMS_P1;PMS_P2;Temp;Humidity;BMP_temperature;BMP_pressure;BME280_temperature;BME280_humidity;BME280_pressure;Samples;Min_cycle;Max_cycle;Signal;HPM_P1;HPM_P2
2022/07/31 00:00:18;;;;;;;5.28;5.07;;;;;;;19.60;75.36;101522.91;6002315;23;20035;-73
2022/07/31 00:02:45;;;;;;;5.50;5.30;;;;;;;19.31;75.16;101483.41;6010384;23;20012;-73
2022/07/31 00:05:11;;;;;;;5.30;5.10;;;;;;;19.59;74.98;101528.38;6008731;23;20051;-73
2022/07/31 00:07:38;;;;;;;5.43;5.22;;;;;;;19.18;74.27;101460.53;6026785;23;20027;-73
2022/07/31 00:10:06;;;;;;;6.38;6.07;;;;;;;19.58;73.92;101529.34;5999226;23;20015;-71
2022/07/31 00:12:36;;;;;;;5.57;5.38;;;;;;;19.57;74.17;101530.31;6031158;23;20026;-71
2022/07/31 00:15:07;;;;;;;7.18;6.88;;;;;;;19.38;74.15;101505.09;5999841;23;20051;-72
2022/07/31 00:17:33;;;;;;;5.57;5.28;;;;;;;19.55;74.38;101535.75;6035648;23;20015;-72
2022/07/31 00:20:00;;;;;;;7.07;6.75;;;;;;;19.53;74.77;101519.88;5998652;23;20019;-72
2022/07/31 00:22:27;;;;;;;5.75;5.45;;;;;;;19.40;74.56;101494.31;6008308;23;20023;-72
2022/07/31 00:24:53;;;;;;;6.68;6.38;;;;;;;19.53;74.90;101513.72;6002270;23;20015;-72
2022/07/31 00:27:20;;;;;;;5.30;5.10;;;;;;;19.48;74.66;101506.09;6000195;23;20035;-71
2022/07/31 00:29:46;;;;;;;5.93;5.43;;;;;;;19.38;75.03;101499.75;5999640;23;20342;-71
2022/07/31 00:32:13;;;;;;;5.72;5.43;;;;;;;19.45;74.68;101516.97;5992112;23;20027;-72
2022/07/31 00:34:41;;;;;;;5.80;5.50;;;;;;;19.42;74.45;101501.22;6002468;23;20422;-71
2022/07/31 00:37:08;;;;;;;5.90;5.60;;;;;;;18.91;74.95;101419.09;6004482;23;20054;-71
2022/07/31 00:39:35;;;;;;;5.60;5.30;;;;;;;19.37;74.97;101492.75;5970131;23;20050;-71
2022/07/31 00:42:01;;;;;;;6.95;6.65;;;;;;;19.35;74.80;101489.38;6001644;23;20019;-72
2022/07/31 00:44:28;;;;;;;5.68;5.38;;;;;;;19.00;74.54;101437.00;5997704;23;20605;-72
2022/07/31 00:46:56;;;;;;;8.32;7.75;;;;;;;19.08;75.06;101447.94;5998711;23;20019;-72
2022/07/31 00:49:23;;;;;;;5.90;5.60;;;;;;;19.33;75.01;101484.16;6007499;23;20605;-71
2022/07/31 00:51:50;;;;;;;6.90;6.50;;;;;;;19.29;74.58;101469.38;5998568;23;20106;-71
2022/07/31 00:54:17;;;;;;;5.70;5.40;;;;;;;19.20;75.13;101467.41;6002415;23;20092;-72
2022/07/31 00:56:48;;;;;;;6.15;5.85;;;;;;;18.84;74.99;101399.25;6003208;23;20023;-72
2022/07/31 00:59:14;;;;;;;5.35;5.13;;;;;;;19.32;75.09;101485.13;5973044;23;20525;-71
2022/07/31 01:01:43;;;;;;;5.30;5.10;;;;;;;18.99;75.44;101432.66;6000282;23;20557;-71
2022/07/31 01:04:11;;;;;;;5.53;5.22;;;;;;;19.14;75.41;101465.22;6000360;23;20413;-72
2022/07/31 01:06:41;;;;;;;5.85;5.55;;;;;;;19.21;75.69;101477.13;6005775;23;20037;-72
2022/07/31 01:09:08;;;;;;;5.55;5.30;;;;;;;18.58;76.02;101375.44;6025578;23;20031;-72
2022/07/31 01:11:47;;;;;;;5.40;5.20;;;;;;;19.13;76.06;101468.88;5988445;23;20043;-71
2022/07/31 01:14:18;;;;;;;5.68;5.28;;;;;;;18.79;76.05;101414.69;6005714;23;20190;-72
2022/07/31 01:16:48;;;;;;;5.50;5.20;;;;;;;19.05;76.46;101472.09;5997694;23;20051;-72
2022/07/31 01:19:32;;;;;;;5.70;5.40;;;;;;;18.68;76.28;101416.34;6012921;23;20019;-71
2022/07/31 01:22:16;;;;;;;5.65;5.35;;;;;;;18.65;76.85;101410.41;5997086;23;20060;-72
2022/07/31 01:25:22;;;;;;;7.15;6.85;;;;;;;19.00;76.86;101463.59;6022068;23;20022;-71
2022/07/31 01:27:51;;;;;;;6.18;5.88;;;;;;;19.01;77.20;101454.69;5992166;23;20043;-71
2022/07/31 01:30:22;;;;;;;5.90;5.60;;;;;;;19.05;76.75;101455.31;6029992;23;20035;-71
2022/07/31 01:32:56;;;;;;;6.75;6.45;;;;;;;18.90;76.48;101422.72;5994897;23;20110;-71
2022/07/31 01:35:27;;;;;;;6.30;5.90;;;;;;;19.10;76.56;101448.66;6032291;23;20014;-71
2022/07/31 01:38:08;;;;;;;6.75;6.45;;;;;;;19.10;77.18;101451.34;5996117;23;20019;-71
2022/07/31 01:40:43;;;;;;;5.43;5.18;;;;;;;18.93;76.97;101418.03;6025107;23;20030;-71
2022/07/31 01:43:21;;;;;;;5.70;5.40;;;;;;;19.10;76.88;101447.81;5994420;23;20611;-71
2022/07/31 01:45:55;;;;;;;5.93;5.63;;;;;;;18.78;77.14;101405.00;6009399;23;20493;-71
2022/07/31 01:48:22;;;;;;;5.97;5.68;;;;;;;19.08;76.90;101442.63;5994333;23;20017;-71
2022/07/31 01:50:51;;;;;;;6.25;5.97;;;;;;;18.76;77.08;101399.78;6027514;23;20026;-71
2022/07/31 01:53:21;;;;;;;5.47;5.18;;;;;;;18.70;77.22;101385.19;5986706;23;20027;-71
2022/07/31 01:55:51;;;;;;;6.10;5.80;;;;;;;19.03;76.90;101446.59;6027640;23;20463;-71
2022/07/31 01:58:33;;;;;;;5.65;5.35;;;;;;;18.56;77.13;101377.38;5997397;23;20026;-72
2022/07/31 02:01:02;;;;;;;6.95;6.65;;;;;;;18.83;77.62;101430.31;5995367;23;20043;-72
2022/07/31 02:03:30;;;;;;;5.63;5.32;;;;;;;18.89;77.67;101445.81;6027717;23;20487;-71
2022/07/31 02:06:13;;;;;;;6.13;5.82;;;;;;;18.86;77.95;101445.19;5997535;23;20034;-71
2022/07/31 02:08:42;;;;;;;5.35;5.15;;;;;;;18.81;78.13;101447.38;6029152;23;20025;-72
2022/07/31 02:11:09;;;;;;;5.72;5.43;;;;;;;18.76;78.18;101437.03;5993245;23;20027;-71
2022/07/31 02:13:36;;;;;;;5.55;5.20;;;;;;;18.72;78.58;101441.75;6022628;23;20090;-72
2022/07/31 02:16:04;;;;;;;7.03;6.63;;;;;;;18.25;78.60;101362.88;6002505;23;20642;-71
2022/07/31 02:18:32;;;;;;;5.80;5.50;;;;;;;17.51;78.43;101243.44;6028574;23;20409;-71
2022/07/31 02:20:59;;;;;;;7.18;6.82;;;;;;;18.63;78.61;101439.75;5999615;23;20038;-71
2022/07/31 02:23:26;;;;;;;5.55;5.28;;;;;;;18.49;79.01;101410.69;6024380;23;20243;-71
2022/07/31 02:25:53;;;;;;;7.15;6.75;;;;;;;18.62;78.71;101434.56;6003967;23;20015;-71
2022/07/31 02:28:21;;;;;;;5.40;5.20;;;;;;;18.19;79.34;101366.00;6037932;23;20039;-71
2022/07/31 02:30:50;;;;;;;5.30;5.10;;;;;;;18.62;79.38;101432.75;5994208;23;20016;-71
2022/07/31 02:33:20;;;;;;;5.50;5.30;;;;;;;18.62;79.03;101435.41;6028865;23;20037;-72
2022/07/31 02:35:49;;;;;;;5.82;5.53;;;;;;;18.17;79.97;101365.25;5983555;23;20476;-71
2022/07/31 02:38:18;;;;;;;5.95;5.65;;;;;;;17.92;80.09;101336.03;6016809;23;20021;-71
2022/07/31 02:40:56;;;;;;;6.25;5.95;;;;;;;18.38;79.85;101392.91;5990462;23;20115;-71
2022/07/31 02:43:25;;;;;;;5.55;5.25;;;;;;;18.48;80.02;101409.00;6014967;23;20073;-71
2022/07/31 02:45:53;;;;;;;6.80;6.50;;;;;;;18.25;79.76;101376.16;5997929;23;20037;-72
2022/07/31 02:48:20;;;;;;;5.97;5.57;;;;;;;18.60;79.63;101426.72;6026613;23;20011;-71
2022/07/31 02:50:48;;;;;;;5.70;5.40;;;;;;;18.60;80.01;101429.38;6002674;23;20024;-71
2022/07/31 02:53:14;;;;;;;5.40;5.13;;;;;;;18.61;79.80;101425.72;6003081;23;20023;-71
2022/07/31 02:55:43;;;;;;;5.53;5.30;;;;;;;18.60;79.60;101417.88;6022804;23;20037;-72
2022/07/31 02:58:10;;;;;;;5.78;5.30;;;;;;;18.47;79.67;101407.31;5996897;23;20257;-71
2022/07/31 03:00:36;;;;;;;5.47;5.18;;;;;;;18.50;80.05;101396.44;6016217;23;20027;-71
2022/07/31 03:03:03;;;;;;;6.82;6.53;;;;;;;18.21;80.55;101356.94;5988178;23;20634;-71
2022/07/31 03:05:30;;;;;;;5.07;4.88;;;;;;;18.66;80.32;101418.28;6028894;23;20082;-71
2022/07/31 03:07:56;;;;;;;5.30;5.10;;;;;;;18.33;80.67;101356.03;6002103;23;20051;-71
2022/07/31 03:10:22;;;;;;;5.30;5.00;;;;;;;18.56;80.62;101403.09;5994599;23;20606;-71
2022/07/31 03:12:53;;;;;;;5.88;5.57;;;;;;;18.68;80.64;101411.03;6011500;23;20007;-71
2022/07/31 03:15:22;;;;;;;6.10;5.60;;;;;;;18.51;80.36;101372.41;5981280;23;20524;-71
2022/07/31 03:17:49;;;;;;;5.90;5.60;;;;;;;18.65;80.35;101387.31;5992751;23;20011;-71
2022/07/31 03:20:17;;;;;;;5.50;5.15;;;;;;;18.83;79.72;101419.69;5999770;23;20743;-71
2022/07/31 03:22:44;;;;;;;5.68;5.38;;;;;;;18.84;80.25;101418.72;6023970;23;20025;-71
2022/07/31 03:25:11;;;;;;;5.13;4.93;;;;;;;18.88;79.64;101417.53;5988751;23;20025;-71
2022/07/31 03:27:48;;;;;;;5.43;5.22;;;;;;;18.88;79.53;101406.03;6025625;23;20014;-71
2022/07/31 03:30:24;;;;;;;6.05;5.65;;;;;;;18.90;79.10;101409.41;5991427;23;20015;-71
2022/07/31 03:32:56;;;;;;;6.00;5.70;;;;;;;18.36;78.17;101335.50;5998268;23;20038;-71
2022/07/31 03:35:23;;;;;;;5.50;5.20;;;;;;;18.85;78.82;101411.59;6030177;23;20472;-71
2022/07/31 03:37:50;;;;;;;6.20;5.90;;;;;;;18.86;79.11;101424.78;5996387;23;20022;-72
2022/07/31 03:40:17;;;;;;;6.03;5.65;;;;;;;18.86;79.33;101415.94;6026119;23;20025;-71
2022/07/31 03:42:46;;;;;;;5.88;5.57;;;;;;;18.53;80.03;101366.97;6000376;23;20586;-72
2022/07/31 03:45:13;;;;;;;5.28;5.05;;;;;;;18.79;81.21;101417.34;6023064;23;20017;-72
2022/07/31 03:47:40;;;;;;;5.60;5.30;;;;;;;18.77;82.88;101421.94;5996067;23;20008;-71
2022/07/31 03:50:07;;;;;;;6.10;5.80;;;;;;;18.44;83.38;101371.19;5998007;23;20023;-71
2022/07/31 03:52:34;;;;;;;5.13;4.93;;;;;;;18.57;84.26;101394.19;6001612;23;20466;-72
2022/07/31 03:55:01;;;;;;;7.13;6.72;;;;;;;18.58;84.16;101398.53;5993666;23;20051;-71
2022/07/31 03:57:29;;;;;;;5.20;5.00;;;;;;;18.53;85.76;101402.38;5999494;23;20102;-71
2022/07/31 04:00:01;;;;;;;7.43;6.93;;;;;;;18.16;86.55;101340.47;5992376;23;20030;-71
2022/07/31 04:02:28;;;;;;;5.40;5.20;;;;;;;18.25;86.91;101331.00;6007200;23;20078;-71
2022/07/31 04:04:57;;;;;;;6.68;6.38;;;;;;;18.60;86.79;101400.13;5991433;23;20144;-71
2022/07/31 04:07:23;;;;;;;5.40;5.20;;;;;;;18.62;86.53;101405.31;6034620;23;20098;-72
2022/07/31 04:09:50;;;;;;;8.30;7.80;;;;;;;18.64;86.14;101396.28;5999183;23;20543;-72
2022/07/31 04:12:17;;;;;;;5.40;5.10;;;;;;;18.20;85.40;101318.06;6027275;23;20054;-72
2022/07/31 04:14:43;;;;;;;16.35;15.45;;;;;;;18.54;84.92;101366.88;5913975;23;20180;-71
2022/07/31 04:17:10;;;;;;;5.47;5.20;;;;;;;18.78;84.93;101395.19;5980456;23;20772;-72
2022/07/31 04:19:36;;;;;;;5.10;4.90;;;;;;;18.66;84.31;101404.09;6002964;23;20039;-72
2022/07/31 04:22:03;;;;;;;7.13;6.72;;;;;;;18.86;82.98;101394.66;5996276;23;20098;-71
2022/07/31 04:24:30;;;;;;;5.10;4.90;;;;;;;18.91;82.53;101389.84;6026131;23;20449;-71
2022/07/31 04:26:57;;;;;;;5.43;5.22;;;;;;;18.27;81.29;101284.75;6004657;23;20015;-72
2022/07/31 04:29:27;;;;;;;6.15;5.68;;;;;;;18.92;81.30;101389.75;6028110;23;20054;-72
2022/07/31 04:31:54;;;;;;;6.10;5.80;;;;;;;18.74;81.03;101344.09;6001953;23;20026;-73
2022/07/31 04:34:21;;;;;;;5.70;5.40;;;;;;;19.00;80.88;101375.81;6025388;23;20480;-72
2022/07/31 04:36:47;;;;;;;5.53;5.30;;;;;;;18.91;80.58;101363.25;6002145;23;20090;-72
2022/07/31 04:39:13;;;;;;;5.20;5.00;;;;;;;18.70;80.41;101329.34;6029497;23;20026;-73
2022/07/31 04:41:40;;;;;;;5.30;5.10;;;;;;;18.19;80.37;101235.81;5999148;23;20086;-72
2022/07/31 04:44:06;;;;;;;5.95;5.65;;;;;;;19.14;80.05;101390.72;6028614;23;20844;-72
2022/07/31 04:46:33;;;;;;;5.20;5.00;;;;;;;19.13;79.97;101389.03;5998754;23;20023;-73
2022/07/31 04:48:59;;;;;;;6.70;6.40;;;;;;;19.08;78.67;101376.09;6024459;23;20037;-72
2022/07/31 04:51:26;;;;;;;5.47;5.20;;;;;;;19.03;78.53;101346.34;6002610;23;20049;-73
2022/07/31 04:53:52;;;;;;;6.47;6.18;;;;;;;19.32;80.06;101388.44;6024722;23;20035;-73
2022/07/31 04:56:40;;;;;;;5.70;5.40;;;;;;;19.42;78.88;101381.44;6005775;23;20022;-72
2022/07/31 04:59:12;;;;;;;5.20;5.00;;;;;;;19.51;78.13;101379.88;5993244;23;20038;-72
2022/07/31 05:01:40;;;;;;;5.63;5.40;;;;;;;19.55;77.78;101370.69;6025080;23;20034;-72
2022/07/31 05:04:08;;;;;;;6.28;5.95;;;;;;;19.40;78.10;101355.91;6003508;23;20026;-72
2022/07/31 05:06:37;;;;;;;5.70;5.30;;;;;;;19.63;77.23;101372.72;6039163;23;20101;-73
2022/07/31 05:09:06;;;;;;;6.55;6.25;;;;;;;19.72;76.93;101372.88;6000582;23;20047;-73
2022/07/31 05:11:36;;;;;;;5.80;5.50;;;;;;;19.62;76.12;101336.41;5999379;23;20590;-73
2022/07/31 05:14:05;;;;;;;6.47;6.07;;;;;;;19.76;75.77;101354.81;6024212;23;20037;-72
2022/07/31 05:16:31;;;;;;;5.30;5.10;;;;;;;19.97;75.01;101372.72;6001112;23;20078;-73
2022/07/31 05:18:58;;;;;;;6.55;6.25;;;;;;;19.85;74.95;101342.59;5994249;23;20094;-73
2022/07/31 05:21:29;;;;;;;6.57;6.18;;;;;;;19.92;75.14;101339.31;6035328;23;20067;-72
2022/07/31 05:23:56;;;;;;;7.05;6.65;;;;;;;19.92;74.29;101339.31;6006482;23;20624;-73
2022/07/31 05:26:23;;;;;;;5.68;5.38;;;;;;;20.00;74.90;101338.66;5996231;23;20029;-73
2022/07/31 05:28:52;;;;;;;6.35;6.05;;;;;;;20.18;74.81;101362.09;5997466;23;20031;-72
2022/07/31 05:31:24;;;;;;;5.50;5.30;;;;;;;20.13;74.43;101355.34;6029237;23;20011;-72
2022/07/31 05:33:51;;;;;;;6.40;6.10;;;;;;;20.16;75.02;101367.56;5994660;23;20035;-73
2022/07/31 05:36:19;;;;;;;5.35;5.15;;;;;;;20.23;74.79;101359.91;6028760;23;20023;-73
2022/07/31 05:38:46;;;;;;;5.70;5.40;;;;;;;20.26;74.80;101370.31;5997288;23;20035;-73
2022/07/31 05:41:13;;;;;;;5.93;5.50;;;;;;;20.27;75.10;101359.53;6033722;23;20362;-73
2022/07/31 05:43:39;;;;;;;5.18;4.97;;;;;;;20.26;74.27;101343.66;5998026;23;20448;-72
2022/07/31 05:46:06;;;;;;;6.05;5.75;;;;;;;20.33;72.79;101312.88;5987737;23;20089;-72
2022/07/31 05:48:32;;;;;;;5.68;5.38;;;;;;;20.64;72.59;101331.63;6001396;23;20086;-73
2022/07/31 05:50:59;;;;;;;6.88;6.57;;;;;;;20.90;71.54;101319.56;6024231;23;20030;-73
2022/07/31 05:53:30;;;;;;;5.40;5.20;;;;;;;21.48;70.88;101319.00;5997753;23;20560;-72
2022/07/31 05:55:57;;;;;;;6.88;6.57;;;;;;;22.33;66.46;101276.66;6018517;23;20302;-72
2022/07/31 05:58:23;;;;;;;5.75;5.45;;;;;;;23.19;61.60;101260.47;5993688;23;20025;-72
2022/07/31 06:00:50;;;;;;;6.18;5.88;;;;;;;23.47;60.17;101290.81;6027048;23;20100;-73
2022/07/31 06:03:22;;;;;;;5.80;5.50;;;;;;;22.83;60.99;101273.72;5993984;23;20462;-72
2022/07/31 06:05:50;;;;;;;6.40;6.00;;;;;;;22.32;62.26;101288.34;6024154;23;20599;-73
2022/07/31 06:08:17;;;;;;;5.60;5.40;;;;;;;22.13;63.42;101291.84;5992670;23;20066;-72
2022/07/31 06:10:43;;;;;;;5.80;5.50;;;;;;;22.45;63.70;101337.03;5993704;23;20035;-72
2022/07/31 06:13:11;;;;;;;6.90;6.50;;;;;;;22.29;64.60;101350.09;6019370;23;20086;-73
2022/07/31 06:15:38;;;;;;;6.00;5.70;;;;;;;22.52;64.26;101334.63;5986850;23;20025;-73
2022/07/31 06:18:07;;;;;;;6.07;5.78;;;;;;;22.48;64.30;101285.06;5965709;23;20999;-73
2022/07/31 06:20:34;;;;;;;5.50;5.30;;;;;;;22.57;63.66;101289.56;5972014;23;20687;-73
2022/07/31 06:23:04;;;;;;;6.63;6.32;;;;;;;22.58;63.21;101333.22;5990454;23;20089;-73
2022/07/31 06:25:51;;;;;;;6.32;6.03;;;;;;;22.36;64.00;101289.72;6019585;23;20065;-73
2022/07/31 06:28:17;;;;;;;5.80;5.50;;;;;;;22.29;64.83;101329.56;5993905;23;20038;-73
2022/07/31 06:30:45;;;;;;;5.30;5.10;;;;;;;22.09;65.78;101334.03;5994543;23;20031;-73
2022/07/31 06:33:11;;;;;;;5.40;5.20;;;;;;;22.00;65.87;101339.38;5996060;23;20107;-73
2022/07/31 06:35:58;;;;;;;6.60;6.30;;;;;;;21.96;66.97;101345.97;5992459;23;20602;-73
2022/07/31 06:38:24;;;;;;;5.50;5.30;;;;;;;21.79;66.71;101307.41;6006327;23;20029;-73
2022/07/31 06:40:51;;;;;;;6.38;6.07;;;;;;;21.95;67.47;101304.19;5993236;23;20037;-73
2022/07/31 06:43:17;;;;;;;6.38;6.00;;;;;;;21.99;67.61;101317.16;6025948;23;20030;-73
2022/07/31 06:45:43;;;;;;;5.35;5.15;;;;;;;21.95;68.48;101321.09;5999196;23;20598;-73
2022/07/31 06:48:17;;;;;;;5.32;5.10;;;;;;;21.68;67.62;101308.38;6023385;23;20142;-73
2022/07/31 06:50:44;;;;;;;5.53;5.22;;;;;;;21.95;68.63;101345.16;6000533;23;20039;-73
2022/07/31 06:53:10;;;;;;;5.60;5.30;;;;;;;22.04;69.05;101355.00;6021907;23;20471;-73
2022/07/31 06:55:37;;;;;;;5.35;5.13;;;;;;;21.44;68.57;101271.34;5993872;23;20536;-73
2022/07/31 06:58:09;;;;;;;5.72;5.47;;;;;;;21.66;69.76;101374.47;6033025;23;20023;-72
2022/07/31 07:00:36;;;;;;;5.45;5.20;;;;;;;21.70;69.55;101371.38;5996235;23;20035;-71
2022/07/31 07:03:02;;;;;;;6.90;6.60;;;;;;;21.19;69.52;101334.91;6019309;23;20052;-70
2022/07/31 07:05:29;;;;;;;5.38;5.18;;;;;;;21.33;69.97;101328.34;6007217;23;20022;-72
2022/07/31 07:07:55;;;;;;;6.53;6.22;;;;;;;21.31;70.24;101349.00;6004179;23;20023;-72
2022/07/31 07:10:21;;;;;;;5.38;5.18;;;;;;;21.47;70.45;101372.56;5999865;23;20023;-71
2022/07/31 07:12:48;;;;;;;5.47;5.25;;;;;;;21.27;71.17;101363.59;6022957;23;20089;-70
2022/07/31 07:15:14;;;;;;;5.38;5.18;;;;;;;21.33;71.56;101349.72;5991260;23;21519;-72
2022/07/31 07:17:41;;;;;;;5.40;5.15;;;;;;;21.29;71.87;101324.28;6023529;23;20096;-72
2022/07/31 07:20:08;;;;;;;5.40;5.10;;;;;;;20.65;71.51;101248.84;5997992;23;20030;-73
2022/07/31 07:22:34;;;;;;;5.47;5.18;;;;;;;21.39;72.02;101359.00;6030244;23;20034;-73
2022/07/31 07:25:00;;;;;;;6.75;6.45;;;;;;;21.49;71.29;101342.06;5994592;23;20532;-73
2022/07/31 07:27:27;;;;;;;5.30;5.10;;;;;;;21.64;70.26;101339.84;5999084;23;20034;-73
2022/07/31 07:29:54;;;;;;;6.45;6.15;;;;;;;21.85;69.67;101339.78;6023291;23;20030;-73
2022/07/31 07:32:20;;;;;;;5.78;5.47;;;;;;;21.73;70.53;101338.22;5998729;23;20433;-73
2022/07/31 07:34:47;;;;;;;7.72;7.13;;;;;;;21.82;70.37;101328.53;6022428;23;20034;-73
2022/07/31 07:37:26;;;;;;;5.38;5.18;;;;;;;21.94;69.50;101308.69;5994976;23;20015;-72
2022/07/31 07:39:52;;;;;;;6.07;5.80;;;;;;;22.30;68.29;101333.94;5971718;23;20028;-72
2022/07/31 07:42:18;;;;;;;5.45;5.15;;;;;;;22.33;68.40;101303.41;5997033;23;20019;-72
2022/07/31 07:44:45;;;;;;;5.50;5.28;;;;;;;21.45;68.98;101196.47;6001668;23;20042;-71
2022/07/31 07:47:12;;;;;;;6.00;5.70;;;;;;;22.28;69.58;101322.53;6030087;23;20034;-72
2022/07/31 07:49:38;;;;;;;5.05;4.85;;;;;;;22.13;69.00;101275.81;6001387;23;20048;-72
2022/07/31 07:52:05;;;;;;;6.57;6.28;;;;;;;21.80;69.08;101189.72;6028439;23;20035;-72
2022/07/31 07:54:31;;;;;;;5.78;5.47;;;;;;;22.35;70.52;101321.97;6010737;23;20027;-72
2022/07/31 07:56:58;;;;;;;6.80;6.50;;;;;;;22.46;70.07;101281.69;6023169;23;20039;-72
2022/07/31 07:59:24;;;;;;;5.20;5.00;;;;;;;22.81;69.88;101306.97;6002895;23;20028;-72
2022/07/31 08:01:51;;;;;;;6.30;6.00;;;;;;;22.83;68.59;101240.75;6026344;23;20038;-72
2022/07/31 08:04:17;;;;;;;6.75;6.35;;;;;;;23.27;67.44;101286.53;6000370;23;20023;-72
2022/07/31 08:06:43;;;;;;;5.72;5.32;;;;;;;23.26;66.94;101253.53;6002775;23;20034;-72
2022/07/31 08:09:10;;;;;;;5.50;5.20;;;;;;;23.32;65.91;101238.72;5990457;23;20060;-72
2022/07/31 08:11:36;;;;;;;5.75;5.35;;;;;;;23.22;66.83;101288.81;6021279;23;20078;-72
2022/07/31 08:14:03;;;;;;;6.60;6.22;;;;;;;23.20;66.62;101291.63;5996180;23;20027;-72
2022/07/31 08:16:31;;;;;;;5.50;5.20;;;;;;;23.22;66.02;101289.66;6027153;23;20563;-74
2022/07/31 08:18:57;;;;;;;6.70;6.40;;;;;;;23.04;68.52;101289.59;6010418;23;20027;-73
2022/07/31 08:21:24;;;;;;;5.68;5.40;;;;;;;23.31;68.62;101290.59;6028727;23;20015;-73
2022/07/31 08:23:51;;;;;;;6.15;5.85;;;;;;;22.96;69.42;101267.19;5997714;23;20015;-74
2022/07/31 08:26:18;;;;;;;5.60;5.30;;;;;;;23.01;71.68;101260.41;6024135;23;20483;-73
2022/07/31 08:28:44;;;;;;;5.45;5.25;;;;;;;23.85;69.46;101250.50;6001023;23;20055;-72
2022/07/31 08:31:18;;;;;;;5.70;5.40;;;;;;;24.09;65.38;101247.19;6030542;23;20025;-72
2022/07/31 08:33:44;;;;;;;5.40;5.20;;;;;;;24.25;63.46;101267.94;5995936;23;20028;-72
2022/07/31 08:36:11;;;;;;;5.40;5.20;;;;;;;23.92;64.66;101282.91;6028180;23;20031;-72
2022/07/31 08:38:38;;;;;;;5.70;5.40;;;;;;;24.23;63.60;101283.34;5993939;23;20015;-72
2022/07/31 08:41:05;;;;;;;6.93;6.63;;;;;;;24.12;63.12;101254.94;6027004;23;20083;-72
2022/07/31 08:43:31;;;;;;;5.55;5.32;;;;;;;24.23;62.67;101254.69;6011022;23;20034;-72
2022/07/31 08:46:19;;;;;;;5.55;5.35;;;;;;;24.45;62.01;101255.16;6015071;23;20018;-72
2022/07/31 08:48:49;;;;;;;5.88;5.57;;;;;;;24.89;60.67;101266.69;6008634;23;20023;-72
2022/07/31 08:51:16;;;;;;;5.82;5.53;;;;;;;24.97;59.69;101243.59;6027759;23;20491;-73
2022/07/31 08:53:43;;;;;;;5.70;5.40;;;;;;;25.14;59.49;101209.56;5986667;23;20037;-73
2022/07/31 08:56:10;;;;;;;5.95;5.65;;;;;;;25.65;58.18;101235.41;6034004;23;20046;-72
2022/07/31 08:58:37;;;;;;;6.03;5.72;;;;;;;25.48;56.99;101258.75;5998231;23;20031;-72
2022/07/31 09:01:06;;;;;;;6.72;6.32;;;;;;;25.06;59.29;101264.13;6024790;23;20413;-72
2022/07/31 09:03:34;;;;;;;5.95;5.60;;;;;;;25.40;59.42;101261.41;5981435;23;20011;-72
2022/07/31 09:06:01;;;;;;;7.13;6.75;;;;;;;25.66;57.81;101228.22;6022439;23;20015;-72
2022/07/31 09:08:34;;;;;;;5.65;5.45;;;;;;;25.82;57.25;101246.19;5973215;23;20487;-72
2022/07/31 09:11:06;;;;;;;6.95;6.65;;;;;;;26.23;56.03;101220.16;6026020;23;20023;-71
2022/07/31 09:13:33;;;;;;;5.27;5.07;;;;;;;25.83;57.24;101267.53;5973569;23;20460;-73
2022/07/31 09:16:00;;;;;;;6.95;6.65;;;;;;;25.78;56.70;101237.63;6030106;23;20335;-73
2022/07/31 09:18:27;;;;;;;5.70;5.40;;;;;;;25.78;56.58;101258.28;5998377;23;20011;-72
2022/07/31 09:20:59;;;;;;;6.82;6.45;;;;;;;25.95;57.13;101265.41;6000717;23;20078;-73
2022/07/31 09:23:27;;;;;;;5.85;5.55;;;;;;;26.13;57.07;101241.03;6027428;23;20030;-73
2022/07/31 09:26:04;;;;;;;6.70;6.40;;;;;;;26.30;57.33;101247.25;5970245;23;20092;-73
2022/07/31 09:28:43;;;;;;;5.65;5.35;;;;;;;26.17;56.15;101263.88;6026977;23;20038;-72
2022/07/31 09:31:12;;;;;;;5.63;5.32;;;;;;;26.30;56.35;101243.69;5994375;23;20045;-72
2022/07/31 09:33:42;;;;;;;5.90;5.60;;;;;;;25.95;56.28;101232.28;6030632;23;20019;-72
2022/07/31 09:36:12;;;;;;;;;;;;;;;25.69;55.33;101112.28;5975970;23;20023;-72
2022/07/31 09:38:42;;;;;;;5.40;5.20;;;;;;;26.34;55.70;101231.56;6024141;23;19925;-72
2022/07/31 09:41:10;;;;;;;5.80;5.50;;;;;;;25.92;57.18;101262.19;5995713;23;20708;-72
2022/07/31 09:43:59;;;;;;;6.70;6.40;;;;;;;26.06;56.25;101246.25;5995021;23;20243;-72
2022/07/31 09:46:36;;;;;;;5.72;5.43;;;;;;;26.56;55.52;101252.41;6014770;23;20384;-72
2022/07/31 09:49:03;;;;;;;6.50;6.20;;;;;;;26.40;55.21;101226.38;5993580;23;20030;-72
2022/07/31 09:51:40;;;;;;;5.95;5.65;;;;;;;26.82;54.18;101233.34;6024875;23;20019;-72
2022/07/31 09:54:17;;;;;;;6.18;5.88;;;;;;;26.22;55.25;101266.94;5990606;23;20051;-72
2022/07/31 09:56:45;;;;;;;5.80;5.50;;;;;;;25.60;55.87;101150.91;6019625;23;20622;-71
2022/07/31 09:59:12;;;;;;;5.53;5.32;;;;;;;24.92;55.45;101064.19;5976187;23;20553;-72
2022/07/31 10:01:40;;;;;;;5.55;5.30;;;;;;;26.09;56.68;101255.81;6031488;23;20105;-72
2022/07/31 10:04:07;;;;;;;6.53;6.22;;;;;;;26.22;54.97;101252.59;5969064;23;20028;-71
2022/07/31 10:06:34;;;;;;;5.45;5.25;;;;;;;26.30;55.44;101231.09;6028237;23;20031;-71
2022/07/31 10:09:03;;;;;;;6.90;6.60;;;;;;;26.14;54.72;101241.84;5996320;23;20025;-72
2022/07/31 10:11:31;;;;;;;5.53;5.32;;;;;;;26.18;56.35;101257.50;6022004;23;20549;-72
2022/07/31 10:14:02;;;;;;;6.95;6.65;;;;;;;26.45;54.79;101229.38;5999862;23;20018;-72
2022/07/31 10:16:34;;;;;;;5.60;5.33;;;;;;;26.64;53.54;101240.78;6023987;23;20070;-72
2022/07/31 10:19:02;;;;;;;6.65;6.35;;;;;;;27.09;52.73;101225.00;5992984;23;20051;-72
2022/07/31 10:21:36;;;;;;;5.55;5.32;;;;;;;26.83;52.49;101245.78;6031451;23;20017;-73
2022/07/31 10:24:04;;;;;;;6.88;6.57;;;;;;;26.64;53.26;101244.34;5993401;23;20481;-72
2022/07/31 10:26:31;;;;;;;6.03;5.60;;;;;;;26.60;53.37;101229.56;5977210;23;20015;-72
2022/07/31 10:29:18;;;;;;;5.50;5.30;;;;;;;27.03;52.39;101227.38;6001444;23;20011;-72
2022/07/31 10:31:45;;;;;;;5.63;5.40;;;;;;;27.23;52.54;101226.94;5996561;23;20090;-72
2022/07/31 10:34:14;;;;;;;5.40;5.20;;;;;;;27.36;51.99;101227.25;6025513;23;20082;-73
2022/07/31 10:36:44;;;;;;;5.85;5.47;;;;;;;27.21;50.84;101227.13;5995681;23;20024;-72
2022/07/31 10:39:34;;;;;;;6.15;5.85;;;;;;;27.17;52.51;101225.78;6018645;23;20247;-72
2022/07/31 10:42:18;;;;;;;6.82;6.53;;;;;;;27.87;49.82;101223.19;6003191;23;20078;-71
2022/07/31 10:45:01;;;;;;;5.78;5.47;;;;;;;28.18;49.43;101196.94;6003885;23;20027;-72
2022/07/31 10:47:28;;;;;;;5.60;5.35;;;;;;;27.34;50.58;101148.38;6024482;23;20019;-73
2022/07/31 10:49:54;;;;;;;6.75;6.45;;;;;;;27.68;49.30;101217.25;5997041;23;20029;-71
2022/07/31 10:52:33;;;;;;;5.88;5.57;;;;;;;27.66;49.86;101219.28;6015605;23;20094;-71
2022/07/31 10:55:00;;;;;;;7.05;6.75;;;;;;;27.80;49.98;101202.34;5987754;23;20027;-73
2022/07/31 10:57:32;;;;;;;5.57;5.28;;;;;;;27.97;50.60;101208.44;5983103;23;20027;-72
2022/07/31 11:00:20;;;;;;;6.97;6.60;;;;;;;28.00;49.36;101224.25;5994502;23;20367;-71
2022/07/31 11:02:46;;;;;;;5.90;5.60;;;;;;;28.19;48.79;101193.22;6027508;23;20015;-71
2022/07/31 11:05:20;;;;;;;5.88;5.57;;;;;;;28.19;48.42;101185.13;5998099;23;20023;-73
2022/07/31 11:07:58;;;;;;;5.82;5.53;;;;;;;28.48;48.12;101198.84;5996183;23;20017;-72
2022/07/31 11:10:25;;;;;;;5.50;5.30;;;;;;;28.35;47.39;101208.41;5992971;23;20015;-74
2022/07/31 11:13:03;;;;;;;5.70;5.43;;;;;;;28.01;47.81;101173.84;6026095;23;20025;-74
2022/07/31 11:15:30;;;;;;;5.95;5.65;;;;;;;27.49;50.96;101207.78;6002094;23;20083;-74
2022/07/31 11:17:57;;;;;;;6.93;6.63;;;;;;;26.61;50.34;101069.69;6007159;23;20103;-74
2022/07/31 11:20:47;;;;;;;6.05;5.75;;;;;;;27.73;50.46;101214.84;5997357;23;20023;-73
2022/07/31 11:23:15;;;;;;;5.90;5.60;;;;;;;27.50;50.16;101190.56;5999087;23;20043;-74
2022/07/31 11:25:45;;;;;;;5.80;5.50;;;;;;;27.83;50.21;101201.94;6033291;23;20078;-74
2022/07/31 11:28:26;;;;;;;5.75;5.47;;;;;;;27.79;49.68;101205.19;5997229;23;20187;-73
2022/07/31 11:31:01;;;;;;;6.35;6.05;;;;;;;27.57;49.40;101159.19;6024609;23;20480;-72
2022/07/31 11:33:30;;;;;;;5.38;5.18;;;;;;;27.89;48.79;101197.72;5998367;23;20074;-72